Terminal Aerodrome Forecast
Issued by NWS

Current Version | Previous Version | Text Only | Print | Product List | Glossary On
Versions: 1 2 3 4 5 6 7 8 9 10 11 12 13 14 15
784
FTUS45 KFGZ 190532
TAFSEZ
TAF
KSEZ 190532Z 1906/2006 04015G24KT P6SM FEW250
     FM191630 VRB05KT P6SM SKC=

USA.gov is the U.S. government's official web portal to all federal, state and local government web resources and services.